Logan Cache Airport Logan US
ICAO: KLGU
IATA: LGU
Category: Medium
Scheduled Services: No

Elevation: 4457 ft
TransAlt. 18000 ft.

Airport Communications:
ASOS:135.275
CEDAR CITY RDO:122.2
CTAF/UNICOM:122.8

KLGU Zoom In..

Runways:

(A) RW 10 length 5005 ft width 75 ft
---- / hdg 108

(B) RW 17 length 9010 ft width 100 ft
ILS 109.15 / hdg 169

(C) RW 28 length 5005 ft width 75 ft
---- / hdg 288

(D) RW 35 length 9010 ft width 100 ft
---- / hdg 349

Location; KLGU
Day. 23 / Time. 03.51 Zulu
* Altimeter: 30.23
* Temperature: 24° c. 75.2°f.
* Wind from: 190° Speed 07 kn.
Dewpoint: 11° c.
Visibility: 10 Statute Miles.
Clouds: Clear (automated report).

KLGU 230351Z AUTO 19007KT 10SM CLR 24/11 A3023 RMK AO2 SLP177 T02440111


Wind From 190°
Speed 07 kn.

 
 
jpsmedia.com for Web Design worldairports.se 2018   terms of use